createdAt,value
2023-12-09T00:00:32.571Z,13.02
2023-12-09T00:03:00.252Z,20.85
2023-12-09T00:05:27.958Z,22.17
2023-12-09T00:07:55.571Z,26.15
2023-12-09T00:10:23.482Z,32.05
2023-12-09T00:12:51.135Z,23.58
2023-12-09T00:15:18.899Z,20.73
2023-12-09T00:17:46.600Z,22.45
2023-12-09T00:20:14.277Z,17.42
2023-12-09T00:22:43.136Z,16.02
2023-12-09T00:25:11.023Z,20.98
2023-12-09T00:27:39.157Z,13.63
2023-12-09T00:30:08.908Z,12.55
2023-12-09T00:32:36.795Z,13.40
2023-12-09T00:35:04.906Z,18.67
2023-12-09T00:37:32.665Z,24.95
2023-12-09T00:40:00.368Z,24.35
2023-12-09T00:42:28.206Z,22.85
2023-12-09T00:44:56.028Z,20.48
2023-12-09T00:47:23.664Z,20.98
2023-12-09T00:49:51.387Z,22.25
2023-12-09T00:52:19.099Z,21.83
2023-12-09T00:54:46.683Z,24.60
2023-12-09T00:57:14.384Z,18.67
2023-12-09T00:59:42.010Z,19.63
2023-12-09T01:02:09.585Z,19.75
2023-12-09T01:04:37.582Z,16.10
2023-12-09T01:07:05.416Z,20.38
2023-12-09T01:09:33.299Z,14.48
2023-12-09T01:12:02.947Z,21.73
2023-12-09T01:14:30.642Z,17.00
2023-12-09T01:16:58.226Z,18.42
2023-12-09T01:19:25.825Z,15.85
2023-12-09T01:21:53.418Z,18.33
2023-12-09T01:24:21.493Z,12.55
2023-12-09T01:26:49.081Z,15.82
2023-12-09T01:29:16.769Z,16.58
2023-12-09T01:31:44.681Z,18.42
2023-12-09T01:34:12.409Z,16.88
2023-12-09T01:36:40.199Z,13.90
2023-12-09T01:39:07.796Z,12.63
2023-12-09T01:41:35.387Z,14.25
2023-12-09T01:44:03.546Z,13.23
2023-12-09T01:46:32.405Z,16.98
2023-12-09T01:49:00.341Z,19.80
2023-12-09T01:51:28.918Z,15.52
2023-12-09T01:53:56.896Z,15.13
2023-12-09T01:56:24.696Z,19.60
2023-12-09T01:58:52.729Z,17.90
2023-12-09T02:01:20.560Z,28.67
2023-12-09T02:03:51.604Z,35.83
2023-12-09T02:06:19.212Z,20.27
2023-12-09T02:08:47.207Z,16.73
2023-12-09T02:11:41.626Z,15.52
2023-12-09T02:14:17.920Z,18.85
2023-12-09T02:16:52.582Z,23.85
2023-12-09T02:19:21.599Z,16.00
2023-12-09T02:22:06.975Z,20.55
2023-12-09T02:24:34.993Z,16.85
2023-12-09T02:27:20.520Z,15.80
2023-12-09T02:30:29.371Z,17.77
2023-12-09T02:32:58.071Z,25.63
2023-12-09T02:35:29.027Z,21.15
2023-12-09T02:37:58.202Z,21.58
2023-12-09T02:40:28.012Z,21.88
2023-12-09T02:42:56.602Z,18.88
2023-12-09T02:45:24.653Z,17.85
2023-12-09T02:47:52.405Z,14.15
2023-12-09T02:50:20.207Z,14.77
2023-12-09T02:52:47.767Z,17.00
2023-12-09T02:55:15.574Z,18.02
2023-12-09T02:57:43.150Z,16.77
2023-12-09T03:00:11.343Z,15.27
2023-12-09T03:02:40.528Z,20.63
2023-12-09T03:05:08.530Z,16.88
2023-12-09T03:07:36.157Z,13.00
2023-12-09T03:10:04.066Z,17.17
2023-12-09T03:12:32.096Z,13.98
2023-12-09T03:14:59.720Z,14.68
2023-12-09T03:17:27.373Z,18.73
2023-12-09T03:19:54.969Z,19.02
2023-12-09T03:22:22.532Z,15.00
2023-12-09T03:24:50.160Z,17.20
2023-12-09T03:27:17.755Z,16.83
2023-12-09T03:29:45.328Z,15.88
2023-12-09T03:32:12.963Z,19.02
2023-12-09T03:34:40.622Z,19.38
2023-12-09T03:37:08.239Z,17.70
2023-12-09T03:39:36.099Z,17.80
2023-12-09T03:42:03.903Z,18.38
2023-12-09T03:44:31.783Z,18.52
2023-12-09T03:46:59.432Z,17.95
2023-12-09T03:49:27.125Z,14.60
2023-12-09T03:51:54.746Z,16.35
2023-12-09T03:54:22.396Z,16.45
2023-12-09T03:56:50.343Z,20.98
2023-12-09T03:59:17.912Z,17.58
2023-12-09T04:01:49.889Z,18.92
2023-12-09T04:04:18.128Z,20.63
2023-12-09T04:06:45.754Z,17.80
2023-12-09T04:09:13.558Z,18.17
2023-12-09T04:11:41.156Z,21.80
2023-12-09T04:14:08.809Z,18.38
2023-12-09T04:16:36.442Z,16.08
2023-12-09T04:19:04.600Z,17.52
2023-12-09T04:21:33.097Z,21.25
2023-12-09T04:24:00.659Z,21.27
2023-12-09T04:26:28.389Z,24.52
2023-12-09T04:28:55.979Z,24.88
2023-12-09T04:31:23.614Z,26.88
2023-12-09T04:33:51.278Z,18.73
2023-12-09T04:36:18.991Z,28.15
2023-12-09T04:38:46.570Z,22.38
2023-12-09T04:41:14.138Z,27.35
2023-12-09T04:43:41.717Z,24.33
2023-12-09T04:46:12.116Z,25.38
2023-12-09T04:48:39.817Z,24.83
2023-12-09T04:51:07.810Z,20.70
2023-12-09T04:53:37.178Z,23.90
2023-12-09T04:56:07.846Z,24.42
2023-12-09T04:58:36.051Z,22.42
2023-12-09T05:01:03.777Z,22.42
2023-12-09T05:03:32.291Z,30.33
2023-12-09T05:06:01.680Z,24.75
2023-12-09T05:08:29.778Z,22.65
2023-12-09T05:10:57.837Z,21.70
2023-12-09T05:13:25.417Z,23.27
2023-12-09T05:15:53.241Z,18.65
2023-12-09T05:18:20.984Z,18.77
2023-12-09T05:20:48.744Z,21.92
2023-12-09T05:23:16.967Z,20.88
2023-12-09T05:25:45.245Z,16.20
2023-12-09T05:28:12.898Z,22.20
2023-12-09T05:30:43.012Z,17.70
2023-12-09T05:33:11.825Z,19.67
2023-12-09T05:35:39.467Z,18.02
2023-12-09T05:38:07.171Z,23.98
2023-12-09T05:40:36.094Z,19.30
2023-12-09T05:43:04.023Z,19.15
2023-12-09T05:45:31.683Z,16.52
2023-12-09T05:47:59.743Z,23.38
2023-12-09T05:50:28.016Z,19.63
2023-12-09T05:52:56.210Z,17.63
2023-12-09T05:55:24.570Z,19.52
2023-12-09T05:57:52.104Z,20.90
2023-12-09T06:00:19.850Z,23.15
2023-12-09T06:02:47.453Z,24.67
2023-12-09T06:05:15.172Z,19.20
2023-12-09T06:07:42.784Z,21.75
2023-12-09T06:10:11.138Z,21.70
2023-12-09T06:12:42.249Z,22.15
2023-12-09T06:15:10.255Z,24.25
2023-12-09T06:17:38.166Z,25.38
2023-12-09T06:20:08.547Z,21.90
2023-12-09T06:22:36.221Z,31.38
2023-12-09T06:25:04.016Z,34.15
2023-12-09T06:27:32.417Z,26.70
2023-12-09T06:30:00.639Z,28.58
2023-12-09T06:32:28.736Z,25.25
2023-12-09T06:34:56.473Z,24.27
2023-12-09T06:37:24.181Z,25.83
2023-12-09T06:39:51.879Z,22.05
2023-12-09T06:42:19.520Z,27.35
2023-12-09T06:44:47.149Z,27.92
2023-12-09T06:47:14.761Z,36.33
2023-12-09T06:49:42.900Z,35.03
2023-12-09T06:52:10.711Z,32.00
2023-12-09T06:54:38.776Z,26.65
2023-12-09T06:57:06.485Z,31.42
2023-12-09T06:59:34.184Z,30.33
2023-12-09T07:02:01.696Z,28.20
2023-12-09T07:04:29.334Z,21.52
2023-12-09T07:07:03.265Z,24.20
2023-12-09T07:09:30.879Z,23.70
2023-12-09T07:12:02.077Z,25.52
2023-12-09T07:14:31.146Z,20.93
2023-12-09T07:16:58.707Z,19.92
2023-12-09T07:19:26.358Z,20.77
2023-12-09T07:21:54.368Z,23.08
2023-12-09T07:24:21.974Z,24.80
2023-12-09T07:26:49.693Z,27.13
2023-12-09T07:29:17.286Z,25.38
2023-12-09T07:31:44.901Z,30.15
2023-12-09T07:34:18.087Z,30.00
2023-12-09T07:36:45.908Z,41.15
2023-12-09T07:39:15.040Z,39.80
2023-12-09T07:41:44.204Z,45.25
2023-12-09T07:44:11.920Z,46.03
2023-12-09T07:46:39.934Z,36.83
2023-12-09T07:49:07.874Z,46.78
2023-12-09T07:51:36.390Z,46.67
2023-12-09T07:54:04.156Z,59.10
2023-12-09T07:56:32.223Z,46.35
2023-12-09T07:58:59.778Z,23.05
2023-12-09T08:01:28.016Z,20.35
2023-12-09T08:03:55.628Z,24.55
2023-12-09T08:06:23.267Z,29.63
2023-12-09T08:08:52.486Z,25.10
2023-12-09T08:11:20.605Z,23.85
2023-12-09T08:13:48.451Z,27.33
2023-12-09T08:16:16.172Z,24.02
2023-12-09T08:18:44.567Z,25.80
2023-12-09T08:21:12.450Z,26.38
2023-12-09T08:23:40.460Z,23.67
2023-12-09T08:26:08.796Z,27.73
2023-12-09T08:28:36.440Z,25.02
2023-12-09T08:31:05.668Z,27.27
2023-12-09T08:33:33.720Z,24.05
2023-12-09T08:36:01.443Z,23.15
2023-12-09T08:38:29.055Z,24.98
2023-12-09T08:40:56.641Z,26.77
2023-12-09T08:43:24.792Z,24.05
2023-12-09T08:45:52.770Z,33.30
2023-12-09T08:48:20.770Z,21.15
2023-12-09T08:50:48.547Z,22.60
2023-12-09T08:53:16.196Z,29.60
2023-12-09T08:55:43.837Z,29.35
2023-12-09T08:58:11.477Z,19.25
2023-12-09T09:00:39.345Z,34.03
2023-12-09T09:03:08.149Z,30.23
2023-12-09T09:05:36.196Z,20.02
2023-12-09T09:08:04.145Z,41.17
2023-12-09T09:10:31.866Z,23.95
2023-12-09T09:12:59.432Z,23.05
2023-12-09T09:15:28.542Z,20.92
2023-12-09T09:17:56.491Z,19.20
2023-12-09T09:20:24.455Z,21.48
2023-12-09T09:22:52.131Z,19.55
2023-12-09T09:25:19.773Z,20.02
2023-12-09T09:27:50.485Z,32.50
2023-12-09T09:30:23.747Z,30.75
2023-12-09T09:32:51.528Z,27.83
2023-12-09T09:35:19.222Z,22.90
2023-12-09T09:37:46.891Z,21.73
2023-12-09T09:40:15.403Z,29.85
2023-12-09T09:42:56.806Z,25.25
2023-12-09T09:45:30.264Z,28.30
2023-12-09T09:48:07.513Z,20.65
2023-12-09T09:50:43.269Z,27.80
2023-12-09T09:53:13.786Z,26.27
2023-12-09T09:55:44.932Z,19.10
2023-12-09T09:58:14.647Z,23.90
2023-12-09T10:00:42.587Z,20.30
2023-12-09T10:03:10.503Z,15.45
2023-12-09T10:05:38.447Z,30.73
2023-12-09T10:08:06.780Z,27.98
2023-12-09T10:10:35.909Z,21.35
2023-12-09T10:13:04.062Z,18.77
2023-12-09T10:15:33.277Z,26.15
2023-12-09T10:18:05.664Z,29.35
2023-12-09T10:20:36.499Z,23.15
2023-12-09T10:23:04.469Z,27.95
2023-12-09T10:25:32.083Z,21.85
2023-12-09T10:27:59.797Z,35.13
2023-12-09T10:30:28.456Z,25.80
2023-12-09T10:32:56.989Z,23.90
2023-12-09T10:35:24.749Z,29.25
2023-12-09T10:37:52.589Z,22.23
2023-12-09T10:40:22.862Z,25.50
2023-12-09T10:42:52.016Z,21.33
2023-12-09T10:45:19.853Z,24.10
2023-12-09T10:47:48.326Z,26.83
2023-12-09T10:50:16.075Z,24.67
2023-12-09T10:52:44.175Z,27.15
2023-12-09T10:55:11.808Z,33.42
2023-12-09T10:57:42.781Z,37.25
2023-12-09T11:00:12.458Z,43.95
2023-12-09T11:02:41.888Z,35.95
2023-12-09T11:05:13.125Z,36.58
2023-12-09T11:07:41.663Z,36.22
2023-12-09T11:10:11.849Z,27.73
2023-12-09T11:12:39.675Z,40.10
2023-12-09T11:15:19.739Z,29.13
2023-12-09T11:17:54.469Z,21.92
2023-12-09T11:20:23.430Z,27.35
2023-12-09T11:22:52.680Z,28.60
2023-12-09T11:25:21.660Z,27.70
2023-12-09T11:27:54.251Z,32.45
2023-12-09T11:30:38.125Z,21.77
2023-12-09T11:33:06.347Z,23.13
2023-12-09T11:35:36.302Z,20.33
2023-12-09T11:38:06.721Z,22.00
2023-12-09T11:40:34.848Z,18.73
2023-12-09T11:43:09.929Z,23.83
2023-12-09T11:45:40.752Z,24.50
2023-12-09T11:48:10.196Z,21.88
2023-12-09T11:50:40.706Z,22.80
2023-12-09T11:53:08.459Z,21.20
2023-12-09T11:55:36.387Z,28.55
2023-12-09T11:58:04.973Z,31.00
2023-12-09T12:00:32.755Z,29.35
2023-12-09T12:03:00.949Z,35.95
2023-12-09T12:05:28.629Z,30.58
2023-12-09T12:07:56.272Z,35.97
2023-12-09T12:10:23.959Z,32.90
2023-12-09T12:12:52.036Z,27.83
2023-12-09T12:15:20.153Z,25.10
2023-12-09T12:17:49.600Z,27.92
2023-12-09T12:20:17.394Z,27.45
2023-12-09T12:22:45.620Z,28.60
2023-12-09T12:25:13.305Z,26.27
2023-12-09T12:27:48.347Z,26.48
2023-12-09T12:30:16.462Z,25.63
2023-12-09T12:32:44.973Z,29.05
2023-12-09T12:35:13.024Z,28.40
2023-12-09T12:37:41.756Z,22.70
2023-12-09T12:40:10.118Z,21.23
2023-12-09T12:42:37.858Z,25.67
2023-12-09T12:45:20.739Z,29.00
2023-12-09T12:50:20.176Z,21.65
2023-12-09T12:52:47.886Z,26.95
2023-12-09T12:55:15.543Z,25.83
2023-12-09T12:57:45.067Z,25.70
2023-12-09T13:00:16.002Z,23.60
2023-12-09T13:02:44.283Z,22.55
2023-12-09T13:05:12.122Z,29.85
2023-12-09T13:07:44.457Z,23.65
2023-12-09T13:10:12.897Z,23.55
2023-12-09T13:12:40.945Z,22.13
2023-12-09T13:15:10.046Z,23.02
2023-12-09T13:17:39.030Z,27.13
2023-12-09T13:20:10.470Z,26.92
2023-12-09T13:22:38.666Z,25.00
2023-12-09T13:25:07.073Z,19.80
2023-12-09T13:27:34.967Z,20.75
2023-12-09T13:30:05.984Z,19.45
2023-12-09T13:32:35.353Z,20.10
2023-12-09T13:35:04.626Z,22.35
2023-12-09T13:37:32.380Z,20.15
2023-12-09T13:40:00.279Z,21.67
2023-12-09T13:42:29.317Z,16.42
2023-12-09T13:44:57.299Z,18.63
2023-12-09T13:47:25.119Z,13.38
2023-12-09T13:49:52.845Z,20.02
2023-12-09T13:52:20.680Z,19.85
2023-12-09T13:54:49.809Z,22.33
2023-12-09T13:57:17.599Z,22.63
2023-12-09T13:59:45.366Z,20.17
2023-12-09T14:02:13.128Z,26.63
2023-12-09T14:04:41.025Z,29.85
2023-12-09T14:07:08.807Z,24.00
2023-12-09T14:09:36.585Z,23.70
2023-12-09T14:12:06.475Z,21.63
2023-12-09T14:14:34.297Z,18.88
2023-12-09T14:17:01.983Z,15.02
2023-12-09T14:19:30.913Z,18.55
2023-12-09T14:21:58.711Z,22.65
2023-12-09T14:24:26.409Z,22.02
2023-12-09T14:26:55.382Z,27.20
2023-12-09T14:29:23.161Z,35.40
2023-12-09T14:31:51.034Z,34.15
2023-12-09T14:34:18.758Z,33.35
2023-12-09T14:36:46.568Z,46.85
2023-12-09T14:39:16.279Z,39.13
2023-12-09T14:41:44.020Z,36.63
2023-12-09T14:44:11.847Z,39.30
2023-12-09T14:46:39.864Z,41.95
2023-12-09T14:49:07.884Z,35.70
2023-12-09T14:51:42.864Z,35.80
2023-12-09T14:54:17.491Z,36.90
2023-12-09T14:56:46.767Z,42.95
2023-12-09T14:59:14.859Z,33.65
2023-12-09T15:01:42.759Z,34.90
2023-12-09T15:04:10.647Z,27.73
2023-12-09T15:06:38.651Z,34.80
2023-12-09T15:09:06.347Z,38.67
2023-12-09T15:11:34.056Z,35.55
2023-12-09T15:14:01.675Z,37.30
2023-12-09T15:16:30.055Z,33.47
2023-12-09T15:18:58.063Z,37.13
2023-12-09T15:21:25.832Z,34.22
2023-12-09T15:23:53.538Z,39.08
2023-12-09T15:26:21.302Z,41.30
2023-12-09T15:28:50.508Z,39.85
2023-12-09T15:31:18.400Z,45.30
2023-12-09T15:33:46.334Z,43.28
2023-12-09T15:36:14.348Z,36.33
2023-12-09T15:38:42.623Z,32.80
2023-12-09T15:41:10.348Z,35.92
2023-12-09T15:43:38.400Z,39.75
2023-12-09T15:46:06.265Z,50.85
2023-12-09T15:48:34.234Z,47.30
2023-12-09T15:51:03.293Z,39.85
2023-12-09T15:53:31.126Z,34.17
2023-12-09T15:55:58.784Z,32.58
2023-12-09T15:58:26.465Z,28.42
2023-12-09T16:00:54.315Z,39.47
2023-12-09T16:03:22.308Z,35.05
2023-12-09T16:05:50.168Z,25.75
2023-12-09T16:08:17.860Z,23.50
2023-12-09T16:10:45.811Z,29.85
2023-12-09T16:13:13.491Z,26.77
2023-12-09T16:15:41.374Z,23.92
2023-12-09T16:18:11.321Z,24.00
2023-12-09T16:20:39.242Z,32.63
2023-12-09T16:23:07.186Z,26.15
2023-12-09T16:25:35.684Z,26.05
2023-12-09T16:28:03.978Z,20.58
2023-12-09T16:30:31.736Z,27.02
2023-12-09T16:32:59.563Z,30.92
2023-12-09T16:35:27.468Z,30.10
2023-12-09T16:37:55.444Z,29.58
2023-12-09T16:40:25.402Z,46.25
2023-12-09T16:42:53.071Z,41.80
2023-12-09T16:45:20.858Z,40.42
2023-12-09T16:47:48.816Z,43.33
2023-12-09T16:50:18.169Z,44.17
2023-12-09T16:52:45.858Z,39.97
2023-12-09T16:55:13.504Z,34.00
2023-12-09T16:57:41.204Z,34.88
2023-12-09T17:00:09.808Z,29.00
2023-12-09T17:02:37.601Z,33.28
2023-12-09T17:05:06.111Z,32.53
2023-12-09T17:07:33.823Z,38.42
2023-12-09T17:10:01.692Z,32.08
2023-12-09T17:12:29.877Z,28.98
2023-12-09T17:14:57.943Z,31.90
2023-12-09T17:17:25.781Z,27.02
2023-12-09T17:19:53.502Z,34.47
2023-12-09T17:22:21.242Z,37.45
2023-12-09T17:24:48.933Z,26.48
2023-12-09T17:27:16.811Z,25.15
2023-12-09T17:29:45.155Z,23.80
2023-12-09T17:32:14.063Z,20.15
2023-12-09T17:34:41.896Z,28.15
2023-12-09T17:37:09.758Z,26.92
2023-12-09T17:39:37.739Z,18.95
2023-12-09T17:42:06.079Z,19.63
2023-12-09T17:44:35.352Z,27.08
2023-12-09T17:47:03.122Z,30.40
2023-12-09T17:49:30.965Z,28.30
2023-12-09T17:52:01.479Z,29.17
2023-12-09T17:54:29.651Z,26.92
2023-12-09T17:56:57.610Z,26.13
2023-12-09T17:59:25.289Z,25.98
2023-12-09T18:01:52.896Z,24.35
2023-12-09T18:04:20.589Z,24.42
2023-12-09T18:06:48.421Z,35.78
2023-12-09T18:09:16.180Z,28.70
2023-12-09T18:11:44.225Z,30.13
2023-12-09T18:14:12.220Z,27.20
2023-12-09T18:16:39.952Z,28.95
2023-12-09T18:19:07.887Z,31.15
2023-12-09T18:21:36.411Z,26.42
2023-12-09T18:24:05.002Z,22.05
2023-12-09T18:26:33.057Z,25.83
2023-12-09T18:29:01.008Z,24.15
2023-12-09T18:31:29.230Z,31.20
2023-12-09T18:33:57.545Z,29.13
2023-12-09T18:36:25.567Z,27.80
2023-12-09T18:38:53.512Z,33.20
2023-12-09T18:41:21.387Z,26.00
2023-12-09T18:43:50.179Z,35.08
2023-12-09T18:46:18.152Z,38.38
2023-12-09T18:48:45.876Z,30.20
2023-12-09T18:51:13.611Z,26.92
2023-12-09T18:53:41.531Z,35.40
2023-12-09T18:56:10.310Z,28.60
2023-12-09T18:58:38.146Z,38.95
2023-12-09T19:01:10.781Z,27.30
2023-12-09T19:03:39.992Z,26.27
2023-12-09T19:06:10.323Z,25.40
2023-12-09T19:08:39.169Z,24.23
2023-12-09T19:11:07.406Z,31.45
2023-12-09T19:13:35.137Z,29.10
2023-12-09T19:16:03.688Z,32.85
2023-12-09T19:18:31.451Z,36.95
2023-12-09T19:20:59.344Z,33.22
2023-12-09T19:23:27.067Z,31.65
2023-12-09T19:25:54.741Z,26.65
2023-12-09T19:28:22.526Z,37.22
2023-12-09T19:30:50.250Z,37.15
2023-12-09T19:33:18.215Z,36.60
2023-12-09T19:35:45.944Z,31.27
2023-12-09T19:38:13.767Z,26.80
2023-12-09T19:40:41.470Z,31.58
2023-12-09T19:43:09.154Z,34.70
2023-12-09T19:45:36.891Z,30.38
2023-12-09T19:48:04.890Z,31.63
2023-12-09T19:50:32.734Z,22.20
2023-12-09T19:53:02.261Z,27.63
2023-12-09T19:55:30.829Z,30.98
2023-12-09T19:57:58.577Z,28.35
2023-12-09T20:00:26.222Z,35.53
2023-12-09T20:02:54.120Z,33.78
2023-12-09T20:05:23.232Z,35.75
2023-12-09T20:07:50.878Z,36.38
2023-12-09T20:10:18.721Z,31.23
2023-12-09T20:12:46.559Z,37.70
2023-12-09T20:15:14.391Z,35.63
2023-12-09T20:17:42.163Z,30.80
2023-12-09T20:20:10.173Z,30.77
2023-12-09T20:22:37.931Z,40.00
2023-12-09T20:25:06.312Z,41.50
2023-12-09T20:27:34.234Z,35.13
2023-12-09T20:30:03.805Z,32.92
2023-12-09T20:32:33.258Z,27.73
2023-12-09T20:35:01.074Z,34.28
2023-12-09T20:37:28.767Z,33.38
2023-12-09T20:39:58.385Z,33.95
2023-12-09T20:42:26.203Z,32.50
2023-12-09T20:44:54.214Z,30.02
2023-12-09T20:47:22.018Z,29.73
2023-12-09T20:49:49.790Z,28.85
2023-12-09T20:52:17.764Z,29.67
2023-12-09T20:54:48.132Z,32.85
2023-12-09T20:57:16.007Z,36.03
2023-12-09T20:59:44.426Z,29.63
2023-12-09T21:02:12.223Z,32.20
2023-12-09T21:04:47.134Z,47.60
2023-12-09T21:07:14.856Z,33.88
2023-12-09T21:09:42.925Z,40.13
2023-12-09T21:12:10.688Z,35.20
2023-12-09T21:14:39.282Z,33.55
2023-12-09T21:17:07.073Z,32.95
2023-12-09T21:19:36.177Z,28.13
2023-12-09T21:22:04.310Z,38.03
2023-12-09T21:24:32.671Z,30.83
2023-12-09T21:27:00.492Z,48.67
2023-12-09T21:29:28.456Z,37.00
2023-12-09T21:31:56.312Z,39.72
2023-12-09T21:34:24.137Z,39.75
2023-12-09T21:36:51.834Z,38.28
2023-12-09T21:39:19.629Z,41.00
2023-12-09T21:41:48.039Z,38.67
2023-12-09T21:44:15.698Z,36.08
2023-12-09T21:46:43.383Z,44.45
2023-12-09T21:49:11.312Z,35.17
2023-12-09T21:51:40.812Z,39.08
2023-12-09T21:54:08.876Z,40.53
2023-12-09T21:56:36.814Z,34.05
2023-12-09T21:59:04.580Z,36.88
2023-12-09T22:01:32.243Z,40.85
2023-12-09T22:03:59.910Z,36.38
2023-12-09T22:06:27.662Z,37.17
2023-12-09T22:08:55.546Z,34.40
2023-12-09T22:11:23.222Z,34.78
2023-12-09T22:13:50.891Z,25.80
2023-12-09T22:16:21.886Z,24.40
2023-12-09T22:18:50.402Z,28.45
2023-12-09T22:21:18.325Z,22.05
2023-12-09T22:23:46.091Z,19.40
2023-12-09T22:26:14.534Z,22.52
2023-12-09T22:28:42.882Z,21.00
2023-12-09T22:31:11.064Z,26.90
2023-12-09T22:33:41.257Z,21.45
2023-12-09T22:36:10.218Z,18.80
2023-12-09T22:38:38.023Z,17.10
2023-12-09T22:41:06.288Z,16.73
2023-12-09T22:43:34.051Z,18.23
2023-12-09T22:46:01.653Z,19.75
2023-12-09T22:48:29.738Z,18.42
2023-12-09T22:50:57.642Z,24.23
2023-12-09T22:53:25.511Z,22.25
2023-12-09T22:55:53.413Z,16.77
2023-12-09T22:58:39.682Z,24.60
2023-12-09T23:01:07.678Z,18.33
2023-12-09T23:03:36.240Z,18.45
2023-12-09T23:06:04.123Z,16.45
2023-12-09T23:08:31.855Z,19.85
2023-12-09T23:10:59.489Z,23.05
2023-12-09T23:13:27.077Z,22.15
2023-12-09T23:15:54.862Z,25.63
2023-12-09T23:18:22.773Z,22.33
2023-12-09T23:20:50.826Z,22.05
2023-12-09T23:23:18.601Z,16.58
2023-12-09T23:25:46.194Z,22.40
2023-12-09T23:28:13.921Z,21.73
2023-12-09T23:30:41.773Z,26.88
2023-12-09T23:33:09.727Z,27.67
2023-12-09T23:35:37.500Z,23.27
2023-12-09T23:38:05.431Z,25.45
2023-12-09T23:40:33.054Z,26.27
2023-12-09T23:43:00.750Z,19.67
2023-12-09T23:45:28.623Z,25.88
2023-12-09T23:47:56.373Z,26.17
2023-12-09T23:50:24.508Z,24.20
2023-12-09T23:52:52.532Z,30.42
2023-12-09T23:55:20.457Z,23.42
2023-12-09T23:57:48.270Z,27.05
